sensor_id;sensor_type;location;lat;lon;timestamp;pressure;altitude;pressure_sealevel;temperature;humidity
69980;BME280;57318;56.232;43.944;2022-07-29T00:00:37;98923.03;;;20.51;55.90
69980;BME280;57318;56.232;43.944;2022-07-29T00:03:02;98910.41;;;20.52;55.81
69980;BME280;57318;56.232;43.944;2022-07-29T00:05:28;98921.63;;;20.55;55.56
69980;BME280;57318;56.232;43.944;2022-07-29T00:07:54;98907.53;;;20.60;55.40
69980;BME280;57318;56.232;43.944;2022-07-29T00:10:20;98915.06;;;20.65;55.34
69980;BME280;57318;56.232;43.944;2022-07-29T00:12:46;98912.78;;;20.68;55.25
69980;BME280;57318;56.232;43.944;2022-07-29T00:15:11;98914.44;;;20.69;55.24
69980;BME280;57318;56.232;43.944;2022-07-29T00:17:37;98913.19;;;20.65;55.47
69980;BME280;57318;56.232;43.944;2022-07-29T00:20:04;98906.50;;;20.61;55.50
69980;BME280;57318;56.232;43.944;2022-07-29T00:22:29;98910.63;;;20.57;55.54
69980;BME280;57318;56.232;43.944;2022-07-29T00:24:55;98909.81;;;20.57;55.78
69980;BME280;57318;56.232;43.944;2022-07-29T00:27:21;98905.22;;;20.57;55.43
69980;BME280;57318;56.232;43.944;2022-07-29T00:29:47;98901.31;;;20.60;55.58
69980;BME280;57318;56.232;43.944;2022-07-29T00:32:12;98900.25;;;20.61;55.53
69980;BME280;57318;56.232;43.944;2022-07-29T00:34:38;98891.53;;;20.59;55.68
69980;BME280;57318;56.232;43.944;2022-07-29T00:37:22;98884.47;;;20.58;55.88
69980;BME280;57318;56.232;43.944;2022-07-29T00:39:48;98881.53;;;20.52;56.15
69980;BME280;57318;56.232;43.944;2022-07-29T00:42:13;98877.78;;;20.47;56.19
69980;BME280;57318;56.232;43.944;2022-07-29T00:44:40;98876.91;;;20.40;56.52
69980;BME280;57318;56.232;43.944;2022-07-29T00:47:08;98876.91;;;20.33;56.85
69980;BME280;57318;56.232;43.944;2022-07-29T00:49:34;98873.50;;;20.24;57.28
69980;BME280;57318;56.232;43.944;2022-07-29T00:52:04;98873.25;;;20.12;58.14
69980;BME280;57318;56.232;43.944;2022-07-29T00:54:30;98878.97;;;20.02;58.44
69980;BME280;57318;56.232;43.944;2022-07-29T00:56:59;98885.16;;;19.96;58.57
69980;BME280;57318;56.232;43.944;2022-07-29T00:59:26;98882.00;;;19.86;59.11
69980;BME280;57318;56.232;43.944;2022-07-29T01:01:52;98891.44;;;19.75;59.53
69980;BME280;57318;56.232;43.944;2022-07-29T01:04:19;98899.09;;;19.72;59.79
69980;BME280;57318;56.232;43.944;2022-07-29T01:06:45;98903.97;;;19.61;60.21
69980;BME280;57318;56.232;43.944;2022-07-29T01:09:10;98900.00;;;19.57;60.33
69980;BME280;57318;56.232;43.944;2022-07-29T01:11:37;98884.41;;;19.53;60.53
69980;BME280;57318;56.232;43.944;2022-07-29T01:14:05;98896.22;;;19.52;60.76
69980;BME280;57318;56.232;43.944;2022-07-29T01:16:37;98893.31;;;19.53;60.94
69980;BME280;57318;56.232;43.944;2022-07-29T01:19:47;98888.75;;;19.54;61.05
69980;BME280;57318;56.232;43.944;2022-07-29T01:22:33;98890.44;;;19.55;60.93
69980;BME280;57318;56.232;43.944;2022-07-29T01:28:08;98884.63;;;19.51;61.28
69980;BME280;57318;56.232;43.944;2022-07-29T01:30:42;98902.38;;;19.45;61.47
69980;BME280;57318;56.232;43.944;2022-07-29T01:33:11;98894.06;;;19.40;61.63
69980;BME280;57318;56.232;43.944;2022-07-29T01:36:01;98895.78;;;19.26;62.18
69980;BME280;57318;56.232;43.944;2022-07-29T01:38:29;98890.97;;;19.22;62.42
69980;BME280;57318;56.232;43.944;2022-07-29T01:40:59;98890.97;;;19.22;62.59
69980;BME280;57318;56.232;43.944;2022-07-29T01:43:36;98889.47;;;19.19;62.67
69980;BME280;57318;56.232;43.944;2022-07-29T01:46:09;98886.34;;;19.16;63.04
69980;BME280;57318;56.232;43.944;2022-07-29T01:48:45;98892.13;;;19.13;63.32
69980;BME280;57318;56.232;43.944;2022-07-29T01:51:24;98884.03;;;19.13;63.22
69980;BME280;57318;56.232;43.944;2022-07-29T01:54:06;98883.03;;;19.14;63.12
69980;BME280;57318;56.232;43.944;2022-07-29T01:56:33;98891.72;;;19.16;63.23
69980;BME280;57318;56.232;43.944;2022-07-29T01:59:02;98892.19;;;19.19;63.05
69980;BME280;57318;56.232;43.944;2022-07-29T02:01:31;98882.63;;;19.17;62.94
69980;BME280;57318;56.232;43.944;2022-07-29T02:03:59;98884.56;;;19.23;62.76
69980;BME280;57318;56.232;43.944;2022-07-29T02:06:29;98892.50;;;19.31;62.55
69980;BME280;57318;56.232;43.944;2022-07-29T02:08:56;98883.66;;;19.37;62.55
69980;BME280;57318;56.232;43.944;2022-07-29T02:11:23;98878.91;;;19.39;62.67
69980;BME280;57318;56.232;43.944;2022-07-29T02:13:52;98887.22;;;19.44;62.52
69980;BME280;57318;56.232;43.944;2022-07-29T02:16:21;98884.63;;;19.51;62.49
69980;BME280;57318;56.232;43.944;2022-07-29T02:18:49;98888.38;;;19.57;62.57
69980;BME280;57318;56.232;43.944;2022-07-29T02:21:20;98888.66;;;19.62;62.50
69980;BME280;57318;56.232;43.944;2022-07-29T02:23:48;98889.72;;;19.68;62.54
69980;BME280;57318;56.232;43.944;2022-07-29T02:26:16;98884.13;;;19.69;62.52
69980;BME280;57318;56.232;43.944;2022-07-29T02:28:43;98896.38;;;19.72;62.56
69980;BME280;57318;56.232;43.944;2022-07-29T02:31:10;98898.03;;;19.73;62.51
69980;BME280;57318;56.232;43.944;2022-07-29T02:33:39;98897.84;;;19.74;62.57
69980;BME280;57318;56.232;43.944;2022-07-29T02:36:06;98887.56;;;19.78;62.61
69980;BME280;57318;56.232;43.944;2022-07-29T02:38:34;98888.88;;;19.89;62.58
69980;BME280;57318;56.232;43.944;2022-07-29T02:41:18;98899.94;;;20.00;62.16
69980;BME280;57318;56.232;43.944;2022-07-29T02:43:47;98888.78;;;20.10;61.85
69980;BME280;57318;56.232;43.944;2022-07-29T02:46:20;98885.09;;;20.18;61.60
69980;BME280;57318;56.232;43.944;2022-07-29T02:48:58;98893.44;;;20.23;61.67
69980;BME280;57318;56.232;43.944;2022-07-29T02:51:44;98889.09;;;20.29;61.35
69980;BME280;57318;56.232;43.944;2022-07-29T02:54:22;98891.63;;;20.37;61.52
69980;BME280;57318;56.232;43.944;2022-07-29T02:56:50;98887.31;;;20.43;61.56
69980;BME280;57318;56.232;43.944;2022-07-29T02:59:22;98889.84;;;20.51;61.55
69980;BME280;57318;56.232;43.944;2022-07-29T03:01:49;98894.22;;;20.59;61.62
69980;BME280;57318;56.232;43.944;2022-07-29T03:04:16;98881.84;;;20.71;61.53
69980;BME280;57318;56.232;43.944;2022-07-29T03:06:45;98899.94;;;20.77;61.42
69980;BME280;57318;56.232;43.944;2022-07-29T03:09:12;98893.56;;;20.91;61.14
69980;BME280;57318;56.232;43.944;2022-07-29T03:11:39;98889.22;;;21.04;61.21
69980;BME280;57318;56.232;43.944;2022-07-29T03:14:06;98894.03;;;21.22;60.64
69980;BME280;57318;56.232;43.944;2022-07-29T03:16:33;98893.00;;;21.36;60.31
69980;BME280;57318;56.232;43.944;2022-07-29T03:19:02;98892.81;;;21.44;60.00
69980;BME280;57318;56.232;43.944;2022-07-29T03:21:28;98894.53;;;21.52;59.92
69980;BME280;57318;56.232;43.944;2022-07-29T03:23:54;98889.94;;;21.59;59.84
69980;BME280;57318;56.232;43.944;2022-07-29T03:26:19;98894.31;;;21.67;59.84
69980;BME280;57318;56.232;43.944;2022-07-29T03:28:45;98889.75;;;21.74;59.78
69980;BME280;57318;56.232;43.944;2022-07-29T03:31:11;98890.97;;;21.85;59.38
69980;BME280;57318;56.232;43.944;2022-07-29T03:33:37;98889.69;;;21.94;59.29
69980;BME280;57318;56.232;43.944;2022-07-29T03:36:03;98890.94;;;21.98;59.33
69980;BME280;57318;56.232;43.944;2022-07-29T03:38:30;98895.31;;;21.99;59.31
69980;BME280;57318;56.232;43.944;2022-07-29T03:41:03;98893.84;;;22.10;59.03
69980;BME280;57318;56.232;43.944;2022-07-29T03:43:32;98895.47;;;22.18;59.29
69980;BME280;57318;56.232;43.944;2022-07-29T03:46:00;98898.41;;;22.23;59.38
69980;BME280;57318;56.232;43.944;2022-07-29T03:48:28;98885.06;;;22.28;59.07
69980;BME280;57318;56.232;43.944;2022-07-29T03:50:56;98884.03;;;22.29;58.38
69980;BME280;57318;56.232;43.944;2022-07-29T03:53:22;98878.81;;;22.34;58.44
69980;BME280;57318;56.232;43.944;2022-07-29T03:55:52;98881.09;;;22.38;58.52
69980;BME280;57318;56.232;43.944;2022-07-29T03:58:19;98879.44;;;22.37;58.41
69980;BME280;57318;56.232;43.944;2022-07-29T04:00:46;98882.56;;;22.33;58.46
69980;BME280;57318;56.232;43.944;2022-07-29T04:03:12;98886.94;;;22.34;58.28
69980;BME280;57318;56.232;43.944;2022-07-29T04:05:38;98887.16;;;22.26;58.13
69980;BME280;57318;56.232;43.944;2022-07-29T04:08:04;98878.63;;;22.29;58.02
69980;BME280;57318;56.232;43.944;2022-07-29T04:10:30;98882.56;;;22.27;58.22
69980;BME280;57318;56.232;43.944;2022-07-29T04:12:55;98883.00;;;22.30;58.18
69980;BME280;57318;56.232;43.944;2022-07-29T04:15:21;98877.56;;;22.30;58.13
69980;BME280;57318;56.232;43.944;2022-07-29T04:17:47;98881.97;;;22.31;57.95
69980;BME280;57318;56.232;43.944;2022-07-29T04:20:13;98885.25;;;22.47;57.82
69980;BME280;57318;56.232;43.944;2022-07-29T04:22:41;98883.09;;;22.62;57.35
69980;BME280;57318;56.232;43.944;2022-07-29T04:25:07;98881.56;;;22.80;56.92
69980;BME280;57318;56.232;43.944;2022-07-29T04:27:33;98882.50;;;22.99;56.70
69980;BME280;57318;56.232;43.944;2022-07-29T04:29:59;98887.63;;;23.14;56.34
69980;BME280;57318;56.232;43.944;2022-07-29T04:32:25;98886.63;;;23.40;55.69
69980;BME280;57318;56.232;43.944;2022-07-29T04:34:51;98875.13;;;23.70;54.62
69980;BME280;57318;56.232;43.944;2022-07-29T04:37:16;98884.16;;;23.89;54.27
69980;BME280;57318;56.232;43.944;2022-07-29T04:39:42;98880.16;;;24.17;53.55
69980;BME280;57318;56.232;43.944;2022-07-29T04:42:08;98879.44;;;24.40;52.84
69980;BME280;57318;56.232;43.944;2022-07-29T04:44:33;98884.44;;;24.80;51.73
69980;BME280;57318;56.232;43.944;2022-07-29T04:46:59;98888.00;;;25.11;50.60
69980;BME280;57318;56.232;43.944;2022-07-29T04:49:25;98891.16;;;25.38;50.10
69980;BME280;57318;56.232;43.944;2022-07-29T04:51:51;98888.13;;;25.70;48.92
69980;BME280;57318;56.232;43.944;2022-07-29T04:54:16;98907.25;;;26.05;48.62
69980;BME280;57318;56.232;43.944;2022-07-29T04:56:42;98898.47;;;26.27;47.71
69980;BME280;57318;56.232;43.944;2022-07-29T04:59:08;98906.72;;;26.44;47.28
69980;BME280;57318;56.232;43.944;2022-07-29T05:01:34;98921.22;;;26.61;47.11
69980;BME280;57318;56.232;43.944;2022-07-29T05:03:59;98915.31;;;26.64;47.44
69980;BME280;57318;56.232;43.944;2022-07-29T05:06:25;98908.75;;;26.37;47.52
69980;BME280;57318;56.232;43.944;2022-07-29T05:08:50;98906.50;;;26.22;47.86
69980;BME280;57318;56.232;43.944;2022-07-29T05:11:16;98910.63;;;25.89;49.46
69980;BME280;57318;56.232;43.944;2022-07-29T05:13:42;98914.13;;;25.42;51.18
69980;BME280;57318;56.232;43.944;2022-07-29T05:16:08;98922.00;;;24.83;53.20
69980;BME280;57318;56.232;43.944;2022-07-29T05:18:34;98932.78;;;24.34;54.96
69980;BME280;57318;56.232;43.944;2022-07-29T05:20:59;98940.34;;;23.82;57.39
69980;BME280;57318;56.232;43.944;2022-07-29T05:23:25;98937.66;;;23.18;59.88
69980;BME280;57318;56.232;43.944;2022-07-29T05:25:51;98935.38;;;22.63;62.50
69980;BME280;57318;56.232;43.944;2022-07-29T05:28:16;98919.63;;;22.13;65.31
69980;BME280;57318;56.232;43.944;2022-07-29T05:30:42;98923.84;;;21.69;67.42
69980;BME280;57318;56.232;43.944;2022-07-29T05:33:10;98934.59;;;21.29;68.73
69980;BME280;57318;56.232;43.944;2022-07-29T05:35:36;98951.53;;;20.96;69.42
69980;BME280;57318;56.232;43.944;2022-07-29T05:38:03;98939.72;;;20.62;71.21
69980;BME280;57318;56.232;43.944;2022-07-29T05:40:29;98944.22;;;20.48;73.52
69980;BME280;57318;56.232;43.944;2022-07-29T05:42:55;98952.03;;;20.36;73.76
69980;BME280;57318;56.232;43.944;2022-07-29T05:45:21;98952.47;;;20.40;73.50
69980;BME280;57318;56.232;43.944;2022-07-29T05:47:46;98956.78;;;20.34;73.55
69980;BME280;57318;56.232;43.944;2022-07-29T05:50:12;98949.47;;;20.28;74.31
69980;BME280;57318;56.232;43.944;2022-07-29T05:52:38;98951.94;;;20.23;74.96
69980;BME280;57318;56.232;43.944;2022-07-29T05:55:04;98964.81;;;20.21;76.78
69980;BME280;57318;56.232;43.944;2022-07-29T05:57:30;98978.28;;;20.21;79.70
69980;BME280;57318;56.232;43.944;2022-07-29T05:59:56;98974.81;;;20.27;79.84
69980;BME280;57318;56.232;43.944;2022-07-29T06:02:22;98961.78;;;20.37;78.79
69980;BME280;57318;56.232;43.944;2022-07-29T06:04:47;98963.31;;;20.53;77.71
69980;BME280;57318;56.232;43.944;2022-07-29T06:07:13;98952.38;;;20.61;76.19
69980;BME280;57318;56.232;43.944;2022-07-29T06:09:39;98959.72;;;20.67;74.96
69980;BME280;57318;56.232;43.944;2022-07-29T06:12:05;98953.00;;;20.63;75.07
69980;BME280;57318;56.232;43.944;2022-07-29T06:14:30;98948.94;;;20.74;75.26
69980;BME280;57318;56.232;43.944;2022-07-29T06:16:57;98956.66;;;20.84;75.17
69980;BME280;57318;56.232;43.944;2022-07-29T06:19:23;98967.28;;;20.85;75.45
69980;BME280;57318;56.232;43.944;2022-07-29T06:21:49;98977.63;;;20.75;76.25
69980;BME280;57318;56.232;43.944;2022-07-29T06:24:15;98975.34;;;20.79;75.78
69980;BME280;57318;56.232;43.944;2022-07-29T06:26:41;98973.88;;;20.83;76.24
69980;BME280;57318;56.232;43.944;2022-07-29T06:29:07;98974.53;;;20.85;76.03
69980;BME280;57318;56.232;43.944;2022-07-29T06:31:34;98987.19;;;20.84;75.36
69980;BME280;57318;56.232;43.944;2022-07-29T06:34:00;98984.28;;;20.79;75.23
69980;BME280;57318;56.232;43.944;2022-07-29T06:36:25;98970.53;;;20.74;74.89
69980;BME280;57318;56.232;43.944;2022-07-29T06:38:51;98959.44;;;20.62;74.58
69980;BME280;57318;56.232;43.944;2022-07-29T06:41:17;98957.09;;;20.52;74.80
69980;BME280;57318;56.232;43.944;2022-07-29T06:43:44;98963.28;;;20.46;75.07
69980;BME280;57318;56.232;43.944;2022-07-29T06:46:12;98957.88;;;20.40;75.68
69980;BME280;57318;56.232;43.944;2022-07-29T06:48:39;98955.97;;;20.33;75.80
69980;BME280;57318;56.232;43.944;2022-07-29T06:51:06;98957.97;;;20.25;76.73
69980;BME280;57318;56.232;43.944;2022-07-29T06:53:32;98957.31;;;20.16;78.54
69980;BME280;57318;56.232;43.944;2022-07-29T06:55:59;98953.50;;;20.10;79.20
69980;BME280;57318;56.232;43.944;2022-07-29T06:58:26;98952.69;;;20.10;79.08
69980;BME280;57318;56.232;43.944;2022-07-29T07:00:52;98962.00;;;20.07;79.04
69980;BME280;57318;56.232;43.944;2022-07-29T07:03:18;98974.22;;;20.03;79.02
69980;BME280;57318;56.232;43.944;2022-07-29T07:05:46;98990.66;;;20.08;78.10
69980;BME280;57318;56.232;43.944;2022-07-29T07:08:12;98992.72;;;20.06;77.30
69980;BME280;57318;56.232;43.944;2022-07-29T07:10:38;98983.56;;;20.07;76.68
69980;BME280;57318;56.232;43.944;2022-07-29T07:13:05;98980.00;;;20.00;76.70
69980;BME280;57318;56.232;43.944;2022-07-29T07:15:31;98982.72;;;20.00;78.16
69980;BME280;57318;56.232;43.944;2022-07-29T07:17:56;98982.31;;;20.03;78.88
69980;BME280;57318;56.232;43.944;2022-07-29T07:20:23;98974.84;;;20.05;79.35
69980;BME280;57318;56.232;43.944;2022-07-29T07:22:49;98975.47;;;20.07;79.69
69980;BME280;57318;56.232;43.944;2022-07-29T07:25:15;98973.25;;;20.11;79.66
69980;BME280;57318;56.232;43.944;2022-07-29T07:27:43;98975.94;;;20.11;79.46
69980;BME280;57318;56.232;43.944;2022-07-29T07:30:09;98998.78;;;20.15;80.85
69980;BME280;57318;56.232;43.944;2022-07-29T07:32:38;99008.75;;;20.14;80.40
69980;BME280;57318;56.232;43.944;2022-07-29T07:35:05;99024.94;;;20.14;80.17
69980;BME280;57318;56.232;43.944;2022-07-29T07:37:31;99027.28;;;20.24;78.91
69980;BME280;57318;56.232;43.944;2022-07-29T07:39:57;99020.69;;;20.27;78.25
69980;BME280;57318;56.232;43.944;2022-07-29T07:42:23;99019.78;;;20.19;78.61
69980;BME280;57318;56.232;43.944;2022-07-29T07:44:50;99013.75;;;20.17;78.93
69980;BME280;57318;56.232;43.944;2022-07-29T07:47:15;99014.38;;;20.19;79.30
69980;BME280;57318;56.232;43.944;2022-07-29T07:49:46;99021.03;;;20.17;80.06
69980;BME280;57318;56.232;43.944;2022-07-29T07:52:13;99023.34;;;20.20;80.05
69980;BME280;57318;56.232;43.944;2022-07-29T07:54:39;99011.28;;;20.23;80.32
69980;BME280;57318;56.232;43.944;2022-07-29T07:57:04;99012.16;;;20.23;80.28
69980;BME280;57318;56.232;43.944;2022-07-29T07:59:30;99009.22;;;20.25;80.41
69980;BME280;57318;56.232;43.944;2022-07-29T08:01:56;99003.41;;;20.21;81.12
69980;BME280;57318;56.232;43.944;2022-07-29T08:04:22;99002.19;;;20.24;81.30
69980;BME280;57318;56.232;43.944;2022-07-29T08:06:48;99004.69;;;20.25;81.35
69980;BME280;57318;56.232;43.944;2022-07-29T08:09:15;99006.78;;;20.30;81.51
69980;BME280;57318;56.232;43.944;2022-07-29T08:11:40;99004.56;;;20.40;81.47
69980;BME280;57318;56.232;43.944;2022-07-29T08:14:06;99011.91;;;20.53;80.86
69980;BME280;57318;56.232;43.944;2022-07-29T08:16:32;99019.88;;;20.61;81.02
69980;BME280;57318;56.232;43.944;2022-07-29T08:18:57;99024.53;;;20.74;79.91
69980;BME280;57318;56.232;43.944;2022-07-29T08:21:24;99018.19;;;20.88;78.91
69980;BME280;57318;56.232;43.944;2022-07-29T08:23:50;99030.47;;;20.98;78.18
69980;BME280;57318;56.232;43.944;2022-07-29T08:26:19;99024.69;;;21.01;78.03
69980;BME280;57318;56.232;43.944;2022-07-29T08:28:46;99018.41;;;20.94;77.99
69980;BME280;57318;56.232;43.944;2022-07-29T08:31:14;99007.25;;;21.03;78.15
69980;BME280;57318;56.232;43.944;2022-07-29T08:33:41;99003.16;;;21.27;77.50
69980;BME280;57318;56.232;43.944;2022-07-29T08:36:07;99001.56;;;21.47;76.80
69980;BME280;57318;56.232;43.944;2022-07-29T08:38:32;99009.53;;;21.61;75.54
69980;BME280;57318;56.232;43.944;2022-07-29T08:41:00;99005.56;;;21.71;75.08
69980;BME280;57318;56.232;43.944;2022-07-29T08:43:29;98993.75;;;21.85;74.58
69980;BME280;57318;56.232;43.944;2022-07-29T08:45:55;98981.66;;;21.94;74.30
69980;BME280;57318;56.232;43.944;2022-07-29T08:48:22;98981.25;;;22.11;73.85
69980;BME280;57318;56.232;43.944;2022-07-29T08:50:52;98978.34;;;22.19;73.45
69980;BME280;57318;56.232;43.944;2022-07-29T08:53:18;98972.31;;;22.30;72.41
69980;BME280;57318;56.232;43.944;2022-07-29T08:55:46;98971.25;;;22.45;72.41
69980;BME280;57318;56.232;43.944;2022-07-29T08:58:13;98978.25;;;22.73;71.88
69980;BME280;57318;56.232;43.944;2022-07-29T09:00:43;98963.53;;;23.14;70.47
69980;BME280;57318;56.232;43.944;2022-07-29T09:03:12;98956.41;;;23.83;69.16
69980;BME280;57318;56.232;43.944;2022-07-29T09:05:41;98948.19;;;25.26;65.54
69980;BME280;57318;56.232;43.944;2022-07-29T09:08:08;98937.84;;;25.77;63.01
69980;BME280;57318;56.232;43.944;2022-07-29T09:10:35;98926.41;;;26.10;61.34
69980;BME280;57318;56.232;43.944;2022-07-29T09:13:01;98929.22;;;26.39;60.60
69980;BME280;57318;56.232;43.944;2022-07-29T09:15:27;98946.16;;;26.29;60.50
69980;BME280;57318;56.232;43.944;2022-07-29T09:17:54;98947.06;;;25.76;60.71
69980;BME280;57318;56.232;43.944;2022-07-29T09:20:22;98945.84;;;25.48;61.34
69980;BME280;57318;56.232;43.944;2022-07-29T09:22:49;98958.63;;;25.60;61.45
69980;BME280;57318;56.232;43.944;2022-07-29T09:25:36;98966.75;;;25.48;61.73
69980;BME280;57318;56.232;43.944;2022-07-29T09:28:10;98975.47;;;25.19;62.74
69980;BME280;57318;56.232;43.944;2022-07-29T09:30:57;98985.00;;;25.10;63.22
69980;BME280;57318;56.232;43.944;2022-07-29T09:33:35;98992.63;;;25.20;62.36
69980;BME280;57318;56.232;43.944;2022-07-29T09:36:06;99011.91;;;25.00;63.41
69980;BME280;57318;56.232;43.944;2022-07-29T09:38:33;99017.81;;;24.97;63.19
69980;BME280;57318;56.232;43.944;2022-07-29T09:41:00;99022.31;;;24.84;64.29
69980;BME280;57318;56.232;43.944;2022-07-29T09:43:27;99023.56;;;24.89;63.76
69980;BME280;57318;56.232;43.944;2022-07-29T09:45:53;99022.47;;;24.71;63.78
69980;BME280;57318;56.232;43.944;2022-07-29T09:48:21;99020.50;;;24.35;65.12
69980;BME280;57318;56.232;43.944;2022-07-29T09:50:47;99011.19;;;24.24;65.14
69980;BME280;57318;56.232;43.944;2022-07-29T09:53:38;99013.44;;;24.08;66.92
69980;BME280;57318;56.232;43.944;2022-07-29T09:56:05;99022.09;;;23.92;66.89
69980;BME280;57318;56.232;43.944;2022-07-29T09:58:31;99025.34;;;23.75;66.93
69980;BME280;57318;56.232;43.944;2022-07-29T10:00:59;99023.88;;;23.73;66.41
69980;BME280;57318;56.232;43.944;2022-07-29T10:03:24;99028.72;;;23.64;66.06
69980;BME280;57318;56.232;43.944;2022-07-29T10:06:09;99031.16;;;23.40;66.57
69980;BME280;57318;56.232;43.944;2022-07-29T10:08:37;99031.88;;;23.22;66.71
69980;BME280;57318;56.232;43.944;2022-07-29T10:11:16;99030.69;;;22.98;68.42
69980;BME280;57318;56.232;43.944;2022-07-29T10:13:44;99021.78;;;22.78;69.02
69980;BME280;57318;56.232;43.944;2022-07-29T10:16:10;99014.97;;;22.55;69.07
69980;BME280;57318;56.232;43.944;2022-07-29T10:18:40;99017.47;;;22.37;70.25
69980;BME280;57318;56.232;43.944;2022-07-29T10:21:06;99031.22;;;22.15;70.77
69980;BME280;57318;56.232;43.944;2022-07-29T10:23:33;99038.69;;;21.99;71.46
69980;BME280;57318;56.232;43.944;2022-07-29T10:26:00;99044.53;;;21.96;71.59
69980;BME280;57318;56.232;43.944;2022-07-29T10:28:26;99052.41;;;21.91;72.24
69980;BME280;57318;56.232;43.944;2022-07-29T10:30:52;99055.75;;;21.87;72.97
69980;BME280;57318;56.232;43.944;2022-07-29T10:33:42;99067.59;;;21.86;72.60
69980;BME280;57318;56.232;43.944;2022-07-29T10:39:27;99078.78;;;21.62;73.28
69980;BME280;57318;56.232;43.944;2022-07-29T10:44:34;99083.09;;;21.50;73.83
69980;BME280;57318;56.232;43.944;2022-07-29T10:47:00;99089.06;;;21.39;75.80
69980;BME280;57318;56.232;43.944;2022-07-29T10:49:26;99091.56;;;21.47;75.54
69980;BME280;57318;56.232;43.944;2022-07-29T10:52:06;99081.25;;;21.57;74.52
69980;BME280;57318;56.232;43.944;2022-07-29T10:57:18;99083.16;;;21.63;73.91
69980;BME280;57318;56.232;43.944;2022-07-29T10:59:50;99081.88;;;21.59;75.29
69980;BME280;57318;56.232;43.944;2022-07-29T11:05:05;99084.84;;;21.71;74.32
69980;BME280;57318;56.232;43.944;2022-07-29T11:07:33;99077.97;;;21.69;74.26
69980;BME280;57318;56.232;43.944;2022-07-29T11:15:09;99071.94;;;21.67;73.30
69980;BME280;57318;56.232;43.944;2022-07-29T11:20:42;99060.66;;;21.50;74.58
69980;BME280;57318;56.232;43.944;2022-07-29T11:29:08;99065.75;;;21.38;76.35
69980;BME280;57318;56.232;43.944;2022-07-29T11:31:44;99063.97;;;21.52;75.55
69980;BME280;57318;56.232;43.944;2022-07-29T11:34:30;99071.88;;;21.53;75.42
69980;BME280;57318;56.232;43.944;2022-07-29T11:39:36;99078.34;;;21.59;74.62
69980;BME280;57318;56.232;43.944;2022-07-29T11:47:29;99073.16;;;21.57;73.78
69980;BME280;57318;56.232;43.944;2022-07-29T11:49:56;99072.31;;;21.57;74.16
69980;BME280;57318;56.232;43.944;2022-07-29T11:52:38;99072.53;;;21.62;73.45
69980;BME280;57318;56.232;43.944;2022-07-29T11:55:11;99067.13;;;21.62;73.53
69980;BME280;57318;56.232;43.944;2022-07-29T11:57:46;99069.84;;;21.62;73.62
69980;BME280;57318;56.232;43.944;2022-07-29T12:00:30;99064.03;;;21.78;73.12
69980;BME280;57318;56.232;43.944;2022-07-29T12:02:58;99063.25;;;21.98;72.44
69980;BME280;57318;56.232;43.944;2022-07-29T12:05:35;99060.13;;;22.08;72.56
69980;BME280;57318;56.232;43.944;2022-07-29T12:08:06;99062.84;;;22.28;71.75
69980;BME280;57318;56.232;43.944;2022-07-29T12:10:32;99059.75;;;22.38;71.34
69980;BME280;57318;56.232;43.944;2022-07-29T12:12:58;99064.75;;;22.47;71.16
69980;BME280;57318;56.232;43.944;2022-07-29T12:15:24;99073.47;;;22.63;70.33
69980;BME280;57318;56.232;43.944;2022-07-29T12:17:51;99072.03;;;22.67;70.16
69980;BME280;57318;56.232;43.944;2022-07-29T12:20:28;99069.94;;;22.69;69.74
69980;BME280;57318;56.232;43.944;2022-07-29T12:22:55;99069.72;;;22.70;69.29
69980;BME280;57318;56.232;43.944;2022-07-29T12:25:21;99066.19;;;22.70;69.77
69980;BME280;57318;56.232;43.944;2022-07-29T12:27:47;99056.13;;;22.84;69.36
69980;BME280;57318;56.232;43.944;2022-07-29T12:30:16;99060.69;;;23.10;68.47
69980;BME280;57318;56.232;43.944;2022-07-29T12:32:44;99048.53;;;23.26;67.72
69980;BME280;57318;56.232;43.944;2022-07-29T12:35:18;99053.09;;;23.32;67.80
69980;BME280;57318;56.232;43.944;2022-07-29T12:37:47;99059.69;;;23.50;67.77
69980;BME280;57318;56.232;43.944;2022-07-29T12:40:16;99059.19;;;23.59;67.60
69980;BME280;57318;56.232;43.944;2022-07-29T12:43:14;99055.78;;;23.77;67.38
69980;BME280;57318;56.232;43.944;2022-07-29T12:45:41;99059.94;;;23.80;67.30
69980;BME280;57318;56.232;43.944;2022-07-29T12:48:09;99062.50;;;23.68;67.72
69980;BME280;57318;56.232;43.944;2022-07-29T12:50:53;99053.56;;;23.61;68.04
69980;BME280;57318;56.232;43.944;2022-07-29T12:53:19;99048.25;;;23.79;67.15
69980;BME280;57318;56.232;43.944;2022-07-29T12:55:47;99061.34;;;23.89;66.48
69980;BME280;57318;56.232;43.944;2022-07-29T12:58:36;99048.75;;;24.27;65.10
69980;BME280;57318;56.232;43.944;2022-07-29T13:01:03;99053.22;;;24.40;65.31
69980;BME280;57318;56.232;43.944;2022-07-29T13:04:02;99041.31;;;24.66;64.25
69980;BME280;57318;56.232;43.944;2022-07-29T13:06:41;99054.72;;;24.86;63.68
69980;BME280;57318;56.232;43.944;2022-07-29T13:11:43;99062.19;;;25.09;63.68
69980;BME280;57318;56.232;43.944;2022-07-29T13:14:14;99062.03;;;25.04;63.47
69980;BME280;57318;56.232;43.944;2022-07-29T13:22:12;99064.59;;;25.17;62.94
69980;BME280;57318;56.232;43.944;2022-07-29T13:24:54;99067.84;;;25.08;63.76
69980;BME280;57318;56.232;43.944;2022-07-29T13:27:22;99072.03;;;25.29;62.79
69980;BME280;57318;56.232;43.944;2022-07-29T13:29:49;99074.25;;;25.13;62.82
69980;BME280;57318;56.232;43.944;2022-07-29T13:32:16;99057.78;;;24.90;64.01
69980;BME280;57318;56.232;43.944;2022-07-29T13:34:42;99056.72;;;24.72;63.87
69980;BME280;57318;56.232;43.944;2022-07-29T13:37:08;99061.66;;;24.63;63.96
69980;BME280;57318;56.232;43.944;2022-07-29T13:39:34;99067.38;;;24.48;64.67
69980;BME280;57318;56.232;43.944;2022-07-29T13:41:59;99074.22;;;24.58;64.67